sensor_id;sensor_type;location;lat;lon;timestamp;temperature;humidity
11188;DHT22;5650;52.700;7.306;2022-11-20T00:01:41;-2.00;99.90
11188;DHT22;5650;52.700;7.306;2022-11-20T00:04:12;-1.90;99.90
11188;DHT22;5650;52.700;7.306;2022-11-20T00:06:39;-1.90;99.90
11188;DHT22;5650;52.700;7.306;2022-11-20T00:09:12;-1.80;99.90
11188;DHT22;5650;52.700;7.306;2022-11-20T00:11:39;-1.80;99.90
11188;DHT22;5650;52.700;7.306;2022-11-20T00:14:10;-1.80;99.90
11188;DHT22;5650;52.700;7.306;2022-11-20T00:16:38;-1.80;99.90
11188;DHT22;5650;52.700;7.306;2022-11-20T00:19:08;-1.80;99.90
11188;DHT22;5650;52.700;7.306;2022-11-20T00:21:35;-1.80;99.90
11188;DHT22;5650;52.700;7.306;2022-11-20T00:24:08;-1.70;99.90
11188;DHT22;5650;52.700;7.306;2022-11-20T00:26:35;-1.60;99.90
11188;DHT22;5650;52.700;7.306;2022-11-20T00:29:05;-1.60;99.90
11188;DHT22;5650;52.700;7.306;2022-11-20T00:31:46;-1.60;99.90
11188;DHT22;5650;52.700;7.306;2022-11-20T00:34:16;-1.50;99.90
11188;DHT22;5650;52.700;7.306;2022-11-20T00:36:46;-1.40;99.90
11188;DHT22;5650;52.700;7.306;2022-11-20T00:39:14;-1.40;99.90
11188;DHT22;5650;52.700;7.306;2022-11-20T00:41:44;-1.40;99.90
11188;DHT22;5650;52.700;7.306;2022-11-20T00:44:11;-1.30;99.90
11188;DHT22;5650;52.700;7.306;2022-11-20T00:46:38;-1.30;99.90
11188;DHT22;5650;52.700;7.306;2022-11-20T00:49:16;-1.20;99.90
11188;DHT22;5650;52.700;7.306;2022-11-20T00:51:43;-1.20;99.90
11188;DHT22;5650;52.700;7.306;2022-11-20T00:54:13;-1.20;99.90
11188;DHT22;5650;52.700;7.306;2022-11-20T00:56:43;-1.10;99.90
11188;DHT22;5650;52.700;7.306;2022-11-20T00:59:11;-1.10;99.90
11188;DHT22;5650;52.700;7.306;2022-11-20T01:01:38;-1.10;99.90
11188;DHT22;5650;52.700;7.306;2022-11-20T01:04:08;-1.00;99.90
11188;DHT22;5650;52.700;7.306;2022-11-20T01:06:40;-1.00;99.90
11188;DHT22;5650;52.700;7.306;2022-11-20T01:09:10;-1.00;99.90
11188;DHT22;5650;52.700;7.306;2022-11-20T01:11:40;-0.90;99.90
11188;DHT22;5650;52.700;7.306;2022-11-20T01:14:10;-0.90;99.90
11188;DHT22;5650;52.700;7.306;2022-11-20T01:16:39;-0.90;99.90
11188;DHT22;5650;52.700;7.306;2022-11-20T01:19:12;-0.90;99.90
11188;DHT22;5650;52.700;7.306;2022-11-20T01:21:43;-0.80;99.90
11188;DHT22;5650;52.700;7.306;2022-11-20T01:24:19;-0.80;99.90
11188;DHT22;5650;52.700;7.306;2022-11-20T01:26:50;-0.70;99.90
11188;DHT22;5650;52.700;7.306;2022-11-20T01:29:18;-0.70;99.90
11188;DHT22;5650;52.700;7.306;2022-11-20T01:31:46;-0.70;99.90
11188;DHT22;5650;52.700;7.306;2022-11-20T01:34:18;-0.70;99.90
11188;DHT22;5650;52.700;7.306;2022-11-20T01:36:47;-0.80;99.90
11188;DHT22;5650;52.700;7.306;2022-11-20T01:39:16;-0.70;99.90
11188;DHT22;5650;52.700;7.306;2022-11-20T01:41:43;-0.70;99.90
11188;DHT22;5650;52.700;7.306;2022-11-20T01:44:48;-0.70;99.90
11188;DHT22;5650;52.700;7.306;2022-11-20T01:47:20;-0.70;99.90
11188;DHT22;5650;52.700;7.306;2022-11-20T01:49:52;-0.60;99.90
11188;DHT22;5650;52.700;7.306;2022-11-20T01:52:23;-0.60;99.90
11188;DHT22;5650;52.700;7.306;2022-11-20T01:54:56;-0.60;99.90
11188;DHT22;5650;52.700;7.306;2022-11-20T01:57:26;-0.60;99.90
11188;DHT22;5650;52.700;7.306;2022-11-20T01:59:59;-0.60;99.90
11188;DHT22;5650;52.700;7.306;2022-11-20T02:02:28;-0.60;99.90
11188;DHT22;5650;52.700;7.306;2022-11-20T02:05:11;-0.50;99.90
11188;DHT22;5650;52.700;7.306;2022-11-20T02:07:43;-0.50;99.90
11188;DHT22;5650;52.700;7.306;2022-11-20T02:10:13;-0.60;99.90
11188;DHT22;5650;52.700;7.306;2022-11-20T02:12:41;-0.50;99.90
11188;DHT22;5650;52.700;7.306;2022-11-20T02:15:28;-0.50;99.90
11188;DHT22;5650;52.700;7.306;2022-11-20T02:17:56;-0.40;99.90
11188;DHT22;5650;52.700;7.306;2022-11-20T02:20:26;-0.40;99.90
11188;DHT22;5650;52.700;7.306;2022-11-20T02:23:00;-0.40;99.90
11188;DHT22;5650;52.700;7.306;2022-11-20T02:25:37;-0.40;99.90
11188;DHT22;5650;52.700;7.306;2022-11-20T02:28:06;-0.30;99.90
11188;DHT22;5650;52.700;7.306;2022-11-20T02:30:33;-0.40;99.90
11188;DHT22;5650;52.700;7.306;2022-11-20T02:33:03;-0.30;99.90
11188;DHT22;5650;52.700;7.306;2022-11-20T02:35:42;-0.30;99.90
11188;DHT22;5650;52.700;7.306;2022-11-20T02:38:10;-0.30;99.90
11188;DHT22;5650;52.700;7.306;2022-11-20T02:40:38;-0.30;99.90
11188;DHT22;5650;52.700;7.306;2022-11-20T02:43:09;-0.30;99.90
11188;DHT22;5650;52.700;7.306;2022-11-20T02:45:36;-0.30;99.90
11188;DHT22;5650;52.700;7.306;2022-11-20T02:48:12;-0.20;99.90
11188;DHT22;5650;52.700;7.306;2022-11-20T02:50:42;-0.20;99.90
11188;DHT22;5650;52.700;7.306;2022-11-20T02:53:10;-0.20;99.90
11188;DHT22;5650;52.700;7.306;2022-11-20T02:55:39;-0.20;99.90
11188;DHT22;5650;52.700;7.306;2022-11-20T02:58:08;-0.10;99.90
11188;DHT22;5650;52.700;7.306;2022-11-20T03:00:38;-0.10;99.90
11188;DHT22;5650;52.700;7.306;2022-11-20T03:03:05;-0.10;99.90
11188;DHT22;5650;52.700;7.306;2022-11-20T03:05:35;-0.10;99.90
11188;DHT22;5650;52.700;7.306;2022-11-20T03:08:02;-0.10;99.90
11188;DHT22;5650;52.700;7.306;2022-11-20T03:10:29;0.00;99.90
11188;DHT22;5650;52.700;7.306;2022-11-20T03:12:58;-0.10;99.90
11188;DHT22;5650;52.700;7.306;2022-11-20T03:15:25;-0.10;99.90
11188;DHT22;5650;52.700;7.306;2022-11-20T03:17:54;0.00;99.90
11188;DHT22;5650;52.700;7.306;2022-11-20T03:20:24;0.00;99.90
11188;DHT22;5650;52.700;7.306;2022-11-20T03:22:53;0.00;99.90
11188;DHT22;5650;52.700;7.306;2022-11-20T03:25:29;0.10;99.90
11188;DHT22;5650;52.700;7.306;2022-11-20T03:28:02;0.10;99.90
11188;DHT22;5650;52.700;7.306;2022-11-20T03:30:29;0.10;99.90
11188;DHT22;5650;52.700;7.306;2022-11-20T03:33:00;0.10;99.90
11188;DHT22;5650;52.700;7.306;2022-11-20T03:35:29;0.20;99.90
11188;DHT22;5650;52.700;7.306;2022-11-20T03:37:57;0.20;99.90
11188;DHT22;5650;52.700;7.306;2022-11-20T03:40:25;0.20;99.90
11188;DHT22;5650;52.700;7.306;2022-11-20T03:42:58;0.20;99.90
11188;DHT22;5650;52.700;7.306;2022-11-20T03:45:27;0.20;99.90
11188;DHT22;5650;52.700;7.306;2022-11-20T03:48:01;0.20;99.90
11188;DHT22;5650;52.700;7.306;2022-11-20T03:50:28;0.20;99.90
11188;DHT22;5650;52.700;7.306;2022-11-20T03:52:58;0.20;99.90
11188;DHT22;5650;52.700;7.306;2022-11-20T03:55:25;0.20;99.90
11188;DHT22;5650;52.700;7.306;2022-11-20T03:57:59;0.20;99.90
11188;DHT22;5650;52.700;7.306;2022-11-20T04:00:40;0.20;99.90
11188;DHT22;5650;52.700;7.306;2022-11-20T04:03:10;0.20;99.90
11188;DHT22;5650;52.700;7.306;2022-11-20T04:05:37;0.20;99.90
11188;DHT22;5650;52.700;7.306;2022-11-20T04:08:11;0.30;99.90
11188;DHT22;5650;52.700;7.306;2022-11-20T04:10:38;0.30;99.90
11188;DHT22;5650;52.700;7.306;2022-11-20T04:13:14;0.20;99.90
11188;DHT22;5650;52.700;7.306;2022-11-20T04:15:46;0.20;99.90
11188;DHT22;5650;52.700;7.306;2022-11-20T04:18:19;0.30;99.90
11188;DHT22;5650;52.700;7.306;2022-11-20T04:20:46;0.30;99.90
11188;DHT22;5650;52.700;7.306;2022-11-20T04:23:20;0.30;99.90
11188;DHT22;5650;52.700;7.306;2022-11-20T04:25:49;0.30;99.90
11188;DHT22;5650;52.700;7.306;2022-11-20T04:28:20;0.30;99.90
11188;DHT22;5650;52.700;7.306;2022-11-20T04:30:51;0.30;99.90
11188;DHT22;5650;52.700;7.306;2022-11-20T04:33:18;0.30;99.90
11188;DHT22;5650;52.700;7.306;2022-11-20T04:35:51;0.30;99.90
11188;DHT22;5650;52.700;7.306;2022-11-20T04:38:18;0.30;99.90
11188;DHT22;5650;52.700;7.306;2022-11-20T04:40:48;0.30;99.90
11188;DHT22;5650;52.700;7.306;2022-11-20T04:43:18;0.30;99.90
11188;DHT22;5650;52.700;7.306;2022-11-20T04:45:52;0.30;99.90
11188;DHT22;5650;52.700;7.306;2022-11-20T04:48:19;0.30;99.90
11188;DHT22;5650;52.700;7.306;2022-11-20T04:50:50;0.30;99.90
11188;DHT22;5650;52.700;7.306;2022-11-20T04:53:17;0.30;99.90
11188;DHT22;5650;52.700;7.306;2022-11-20T04:55:45;0.30;99.90
11188;DHT22;5650;52.700;7.306;2022-11-20T04:58:12;0.30;99.90
11188;DHT22;5650;52.700;7.306;2022-11-20T05:00:39;0.30;99.90
11188;DHT22;5650;52.700;7.306;2022-11-20T05:03:11;0.30;99.90
11188;DHT22;5650;52.700;7.306;2022-11-20T05:05:41;0.30;99.90
11188;DHT22;5650;52.700;7.306;2022-11-20T05:08:08;0.30;99.90
11188;DHT22;5650;52.700;7.306;2022-11-20T05:10:35;0.30;99.90
11188;DHT22;5650;52.700;7.306;2022-11-20T05:13:06;0.30;99.90
11188;DHT22;5650;52.700;7.306;2022-11-20T05:15:33;0.40;99.90
11188;DHT22;5650;52.700;7.306;2022-11-20T05:18:06;0.40;99.90
11188;DHT22;5650;52.700;7.306;2022-11-20T05:20:35;0.40;99.90
11188;DHT22;5650;52.700;7.306;2022-11-20T05:23:12;0.40;99.90
11188;DHT22;5650;52.700;7.306;2022-11-20T05:25:42;0.40;99.90
11188;DHT22;5650;52.700;7.306;2022-11-20T05:28:09;0.40;99.90
11188;DHT22;5650;52.700;7.306;2022-11-20T05:30:42;0.40;99.90
11188;DHT22;5650;52.700;7.306;2022-11-20T05:33:09;0.40;99.90
11188;DHT22;5650;52.700;7.306;2022-11-20T05:35:41;0.40;99.90
11188;DHT22;5650;52.700;7.306;2022-11-20T05:38:11;0.40;99.90
11188;DHT22;5650;52.700;7.306;2022-11-20T05:40:44;0.40;99.90
11188;DHT22;5650;52.700;7.306;2022-11-20T05:43:11;0.40;99.90
11188;DHT22;5650;52.700;7.306;2022-11-20T05:45:41;0.40;99.90
11188;DHT22;5650;52.700;7.306;2022-11-20T05:48:09;0.40;99.90
11188;DHT22;5650;52.700;7.306;2022-11-20T05:50:43;0.40;99.90
11188;DHT22;5650;52.700;7.306;2022-11-20T05:53:15;0.40;99.90
11188;DHT22;5650;52.700;7.306;2022-11-20T05:55:42;0.40;99.90
11188;DHT22;5650;52.700;7.306;2022-11-20T05:58:15;0.40;99.90
11188;DHT22;5650;52.700;7.306;2022-11-20T06:00:42;0.40;99.90
11188;DHT22;5650;52.700;7.306;2022-11-20T06:03:12;0.40;99.90
11188;DHT22;5650;52.700;7.306;2022-11-20T06:05:42;0.40;99.90
11188;DHT22;5650;52.700;7.306;2022-11-20T06:08:14;0.50;99.90
11188;DHT22;5650;52.700;7.306;2022-11-20T06:10:41;0.50;99.90
11188;DHT22;5650;52.700;7.306;2022-11-20T06:13:14;0.50;99.90
11188;DHT22;5650;52.700;7.306;2022-11-20T06:15:50;0.50;99.90
11188;DHT22;5650;52.700;7.306;2022-11-20T06:18:18;0.50;99.90
11188;DHT22;5650;52.700;7.306;2022-11-20T06:20:46;0.50;99.90
11188;DHT22;5650;52.700;7.306;2022-11-20T06:23:14;0.50;99.90
11188;DHT22;5650;52.700;7.306;2022-11-20T06:25:42;0.60;99.90
11188;DHT22;5650;52.700;7.306;2022-11-20T06:28:10;0.60;99.90
11188;DHT22;5650;52.700;7.306;2022-11-20T06:30:37;0.60;99.90
11188;DHT22;5650;52.700;7.306;2022-11-20T06:33:10;0.60;99.90
11188;DHT22;5650;52.700;7.306;2022-11-20T06:35:37;0.60;99.90
11188;DHT22;5650;52.700;7.306;2022-11-20T06:38:07;0.60;99.90
11188;DHT22;5650;52.700;7.306;2022-11-20T06:40:39;0.60;99.90
11188;DHT22;5650;52.700;7.306;2022-11-20T06:43:07;0.60;99.90
11188;DHT22;5650;52.700;7.306;2022-11-20T06:45:43;0.60;99.90
11188;DHT22;5650;52.700;7.306;2022-11-20T06:48:10;0.60;99.90
11188;DHT22;5650;52.700;7.306;2022-11-20T06:50:41;0.60;99.90
11188;DHT22;5650;52.700;7.306;2022-11-20T06:53:08;0.60;99.90
11188;DHT22;5650;52.700;7.306;2022-11-20T06:55:44;0.60;99.90
11188;DHT22;5650;52.700;7.306;2022-11-20T06:58:12;0.60;99.90
11188;DHT22;5650;52.700;7.306;2022-11-20T07:00:43;0.60;99.90
11188;DHT22;5650;52.700;7.306;2022-11-20T07:03:11;0.60;99.90
11188;DHT22;5650;52.700;7.306;2022-11-20T07:05:39;0.60;99.90
11188;DHT22;5650;52.700;7.306;2022-11-20T07:08:12;0.60;99.90
11188;DHT22;5650;52.700;7.306;2022-11-20T07:10:39;0.60;99.90
11188;DHT22;5650;52.700;7.306;2022-11-20T07:13:08;0.70;99.90
11188;DHT22;5650;52.700;7.306;2022-11-20T07:15:35;0.70;99.90
11188;DHT22;5650;52.700;7.306;2022-11-20T07:18:03;0.70;99.90
11188;DHT22;5650;52.700;7.306;2022-11-20T07:20:30;0.70;99.90
11188;DHT22;5650;52.700;7.306;2022-11-20T07:22:57;0.70;99.90
11188;DHT22;5650;52.700;7.306;2022-11-20T07:25:26;0.70;99.90
11188;DHT22;5650;52.700;7.306;2022-11-20T07:27:59;0.70;99.90
11188;DHT22;5650;52.700;7.306;2022-11-20T07:30:27;0.70;99.90
11188;DHT22;5650;52.700;7.306;2022-11-20T07:33:06;0.60;99.90
11188;DHT22;5650;52.700;7.306;2022-11-20T07:35:36;0.70;99.90
11188;DHT22;5650;52.700;7.306;2022-11-20T07:38:06;0.70;99.90
11188;DHT22;5650;52.700;7.306;2022-11-20T07:40:36;0.70;99.90
11188;DHT22;5650;52.700;7.306;2022-11-20T07:43:07;0.70;99.90
11188;DHT22;5650;52.700;7.306;2022-11-20T07:45:38;0.70;99.90
11188;DHT22;5650;52.700;7.306;2022-11-20T07:48:08;0.70;99.90
11188;DHT22;5650;52.700;7.306;2022-11-20T07:50:47;0.70;99.90
11188;DHT22;5650;52.700;7.306;2022-11-20T07:53:14;0.80;99.90
11188;DHT22;5650;52.700;7.306;2022-11-20T07:55:46;0.80;99.90
11188;DHT22;5650;52.700;7.306;2022-11-20T07:58:13;0.80;99.90
11188;DHT22;5650;52.700;7.306;2022-11-20T08:00:42;0.80;99.90
11188;DHT22;5650;52.700;7.306;2022-11-20T08:03:09;0.80;99.90
11188;DHT22;5650;52.700;7.306;2022-11-20T08:05:36;0.80;99.90
11188;DHT22;5650;52.700;7.306;2022-11-20T08:08:04;0.80;99.90
11188;DHT22;5650;52.700;7.306;2022-11-20T08:10:32;0.90;99.90
11188;DHT22;5650;52.700;7.306;2022-11-20T08:12:59;0.90;99.90
11188;DHT22;5650;52.700;7.306;2022-11-20T08:15:48;0.90;99.90
11188;DHT22;5650;52.700;7.306;2022-11-20T08:18:17;0.90;99.90
11188;DHT22;5650;52.700;7.306;2022-11-20T08:20:45;0.90;99.90
11188;DHT22;5650;52.700;7.306;2022-11-20T08:23:12;0.90;99.90
11188;DHT22;5650;52.700;7.306;2022-11-20T08:25:40;0.90;99.90
11188;DHT22;5650;52.700;7.306;2022-11-20T08:28:08;1.00;99.90
11188;DHT22;5650;52.700;7.306;2022-11-20T08:30:36;1.00;99.90
11188;DHT22;5650;52.700;7.306;2022-11-20T08:33:06;1.00;99.90
11188;DHT22;5650;52.700;7.306;2022-11-20T08:35:34;1.10;99.90
11188;DHT22;5650;52.700;7.306;2022-11-20T08:38:02;1.10;99.90
11188;DHT22;5650;52.700;7.306;2022-11-20T08:40:32;1.10;99.90
11188;DHT22;5650;52.700;7.306;2022-11-20T08:42:59;1.10;99.90
11188;DHT22;5650;52.700;7.306;2022-11-20T08:45:26;1.10;99.90
11188;DHT22;5650;52.700;7.306;2022-11-20T08:47:59;1.10;99.90
11188;DHT22;5650;52.700;7.306;2022-11-20T08:50:27;1.10;99.90
11188;DHT22;5650;52.700;7.306;2022-11-20T08:53:02;1.20;99.90
11188;DHT22;5650;52.700;7.306;2022-11-20T08:55:29;1.10;99.90
11188;DHT22;5650;52.700;7.306;2022-11-20T08:57:56;1.20;99.90
11188;DHT22;5650;52.700;7.306;2022-11-20T09:00:24;1.20;99.90
11188;DHT22;5650;52.700;7.306;2022-11-20T09:02:51;1.20;99.90
11188;DHT22;5650;52.700;7.306;2022-11-20T09:05:19;1.20;99.90
11188;DHT22;5650;52.700;7.306;2022-11-20T09:07:47;1.20;99.90
11188;DHT22;5650;52.700;7.306;2022-11-20T09:10:15;1.20;99.90
11188;DHT22;5650;52.700;7.306;2022-11-20T09:12:42;1.20;99.90
11188;DHT22;5650;52.700;7.306;2022-11-20T09:15:10;1.30;99.90
11188;DHT22;5650;52.700;7.306;2022-11-20T09:17:37;1.30;99.90
11188;DHT22;5650;52.700;7.306;2022-11-20T09:20:05;1.30;99.90
11188;DHT22;5650;52.700;7.306;2022-11-20T09:22:33;1.30;99.90
11188;DHT22;5650;52.700;7.306;2022-11-20T09:25:01;1.30;99.90
11188;DHT22;5650;52.700;7.306;2022-11-20T09:27:29;1.40;99.90
11188;DHT22;5650;52.700;7.306;2022-11-20T09:29:56;1.50;99.90
11188;DHT22;5650;52.700;7.306;2022-11-20T09:32:26;1.50;99.90
11188;DHT22;5650;52.700;7.306;2022-11-20T09:34:56;1.60;99.90
11188;DHT22;5650;52.700;7.306;2022-11-20T09:37:25;1.60;99.90
11188;DHT22;5650;52.700;7.306;2022-11-20T09:39:52;1.70;99.90
11188;DHT22;5650;52.700;7.306;2022-11-20T09:42:43;1.70;99.90
11188;DHT22;5650;52.700;7.306;2022-11-20T09:45:24;1.80;99.90
11188;DHT22;5650;52.700;7.306;2022-11-20T09:48:29;1.80;99.90
11188;DHT22;5650;52.700;7.306;2022-11-20T09:51:09;1.90;99.90
11188;DHT22;5650;52.700;7.306;2022-11-20T09:53:55;1.90;99.90
11188;DHT22;5650;52.700;7.306;2022-11-20T09:56:26;1.90;99.90
11188;DHT22;5650;52.700;7.306;2022-11-20T09:58:59;2.00;99.90
11188;DHT22;5650;52.700;7.306;2022-11-20T10:01:36;2.00;99.90
11188;DHT22;5650;52.700;7.306;2022-11-20T10:04:11;2.00;99.90
11188;DHT22;5650;52.700;7.306;2022-11-20T10:06:52;2.00;99.90
11188;DHT22;5650;52.700;7.306;2022-11-20T10:09:27;2.10;99.90
11188;DHT22;5650;52.700;7.306;2022-11-20T10:12:09;2.10;99.90
11188;DHT22;5650;52.700;7.306;2022-11-20T10:14:51;2.20;99.90
11188;DHT22;5650;52.700;7.306;2022-11-20T10:17:36;2.30;99.90
11188;DHT22;5650;52.700;7.306;2022-11-20T10:20:16;2.40;99.90
11188;DHT22;5650;52.700;7.306;2022-11-20T10:22:57;2.50;99.90
11188;DHT22;5650;52.700;7.306;2022-11-20T10:25:33;2.50;99.90
11188;DHT22;5650;52.700;7.306;2022-11-20T10:28:26;2.70;99.90
11188;DHT22;5650;52.700;7.306;2022-11-20T10:31:01;2.70;99.90
11188;DHT22;5650;52.700;7.306;2022-11-20T10:33:32;2.80;99.90
11188;DHT22;5650;52.700;7.306;2022-11-20T10:36:11;2.90;99.90
11188;DHT22;5650;52.700;7.306;2022-11-20T10:38:44;2.90;99.90
11188;DHT22;5650;52.700;7.306;2022-11-20T10:41:23;3.10;99.90
11188;DHT22;5650;52.700;7.306;2022-11-20T10:43:57;3.20;99.90
11188;DHT22;5650;52.700;7.306;2022-11-20T10:49:50;3.40;99.90
11188;DHT22;5650;52.700;7.306;2022-11-20T10:52:26;3.50;99.90
11188;DHT22;5650;52.700;7.306;2022-11-20T10:55:02;3.60;99.90
11188;DHT22;5650;52.700;7.306;2022-11-20T10:57:50;3.70;99.90
11188;DHT22;5650;52.700;7.306;2022-11-20T11:00:22;3.80;99.90
11188;DHT22;5650;52.700;7.306;2022-11-20T11:02:51;3.90;99.90
11188;DHT22;5650;52.700;7.306;2022-11-20T11:05:39;3.90;99.90
11188;DHT22;5650;52.700;7.306;2022-11-20T11:08:12;4.00;99.90
11188;DHT22;5650;52.700;7.306;2022-11-20T11:10:59;4.10;99.90
11188;DHT22;5650;52.700;7.306;2022-11-20T11:13:29;4.10;99.90
11188;DHT22;5650;52.700;7.306;2022-11-20T11:15:57;4.10;99.90
11188;DHT22;5650;52.700;7.306;2022-11-20T11:18:25;4.10;99.90
11188;DHT22;5650;52.700;7.306;2022-11-20T11:20:55;4.00;99.90
11188;DHT22;5650;52.700;7.306;2022-11-20T11:23:37;4.00;99.90
11188;DHT22;5650;52.700;7.306;2022-11-20T11:26:17;4.00;99.90
11188;DHT22;5650;52.700;7.306;2022-11-20T11:28:53;4.10;99.90
11188;DHT22;5650;52.700;7.306;2022-11-20T11:31:25;4.10;99.90
11188;DHT22;5650;52.700;7.306;2022-11-20T11:34:04;4.10;99.90
11188;DHT22;5650;52.700;7.306;2022-11-20T11:36:34;4.10;99.90
11188;DHT22;5650;52.700;7.306;2022-11-20T11:39:16;4.10;99.90
11188;DHT22;5650;52.700;7.306;2022-11-20T11:41:44;4.00;99.90
11188;DHT22;5650;52.700;7.306;2022-11-20T11:44:27;4.10;99.90
11188;DHT22;5650;52.700;7.306;2022-11-20T11:47:23;4.00;99.90
11188;DHT22;5650;52.700;7.306;2022-11-20T11:50:15;3.90;99.90
11188;DHT22;5650;52.700;7.306;2022-11-20T11:53:03;3.90;99.90
11188;DHT22;5650;52.700;7.306;2022-11-20T11:55:44;3.80;99.90
11188;DHT22;5650;52.700;7.306;2022-11-20T11:58:19;3.70;99.90
11188;DHT22;5650;52.700;7.306;2022-11-20T12:00:56;3.60;99.90
11188;DHT22;5650;52.700;7.306;2022-11-20T12:03:27;3.60;99.90
11188;DHT22;5650;52.700;7.306;2022-11-20T12:06:03;3.50;99.90
11188;DHT22;5650;52.700;7.306;2022-11-20T12:08:44;3.50;99.90
11188;DHT22;5650;52.700;7.306;2022-11-20T12:11:32;3.50;99.90
11188;DHT22;5650;52.700;7.306;2022-11-20T12:14:13;3.40;99.90
11188;DHT22;5650;52.700;7.306;2022-11-20T12:16:41;3.40;99.90
11188;DHT22;5650;52.700;7.306;2022-11-20T12:19:11;3.40;99.90
11188;DHT22;5650;52.700;7.306;2022-11-20T12:21:46;3.50;99.90
11188;DHT22;5650;52.700;7.306;2022-11-20T12:24:41;3.50;99.90
11188;DHT22;5650;52.700;7.306;2022-11-20T12:30:22;3.40;99.90
11188;DHT22;5650;52.700;7.306;2022-11-20T12:33:18;3.40;99.90
11188;DHT22;5650;52.700;7.306;2022-11-20T12:36:06;3.40;99.90
11188;DHT22;5650;52.700;7.306;2022-11-20T12:38:48;3.50;99.90
11188;DHT22;5650;52.700;7.306;2022-11-20T12:41:27;3.60;99.90
11188;DHT22;5650;52.700;7.306;2022-11-20T12:44:25;3.60;99.90
11188;DHT22;5650;52.700;7.306;2022-11-20T12:47:17;3.60;99.90
11188;DHT22;5650;52.700;7.306;2022-11-20T12:49:58;3.60;99.90
11188;DHT22;5650;52.700;7.306;2022-11-20T12:52:40;3.60;99.90
11188;DHT22;5650;52.700;7.306;2022-11-20T12:55:21;3.60;99.90
11188;DHT22;5650;52.700;7.306;2022-11-20T12:57:57;3.60;99.90
11188;DHT22;5650;52.700;7.306;2022-11-20T13:00:25;3.60;99.90
11188;DHT22;5650;52.700;7.306;2022-11-20T13:03:31;3.50;99.90
11188;DHT22;5650;52.700;7.306;2022-11-20T13:06:05;3.60;99.90
11188;DHT22;5650;52.700;7.306;2022-11-20T13:08:35;3.50;99.90
11188;DHT22;5650;52.700;7.306;2022-11-20T13:11:09;3.50;99.90
11188;DHT22;5650;52.700;7.306;2022-11-20T13:13:54;3.40;99.90
11188;DHT22;5650;52.700;7.306;2022-11-20T13:16:30;3.40;99.90
11188;DHT22;5650;52.700;7.306;2022-11-20T13:19:10;3.30;99.90
11188;DHT22;5650;52.700;7.306;2022-11-20T13:21:39;3.30;99.90
11188;DHT22;5650;52.700;7.306;2022-11-20T13:24:21;3.30;99.90
11188;DHT22;5650;52.700;7.306;2022-11-20T13:27:00;3.20;99.90
11188;DHT22;5650;52.700;7.306;2022-11-20T13:29:29;3.20;99.90
11188;DHT22;5650;52.700;7.306;2022-11-20T13:32:13;3.20;99.90
11188;DHT22;5650;52.700;7.306;2022-11-20T13:34:51;3.20;99.90
11188;DHT22;5650;52.700;7.306;2022-11-20T13:37:27;3.20;99.90
11188;DHT22;5650;52.700;7.306;2022-11-20T13:40:29;3.20;99.90
11188;DHT22;5650;52.700;7.306;2022-11-20T13:43:04;3.20;99.90
11188;DHT22;5650;52.700;7.306;2022-11-20T13:45:41;3.20;99.90
11188;DHT22;5650;52.700;7.306;2022-11-20T13:48:20;3.20;99.90
11188;DHT22;5650;52.700;7.306;2022-11-20T13:50:57;3.20;99.90
11188;DHT22;5650;52.700;7.306;2022-11-20T13:53:53;3.10;99.90
11188;DHT22;5650;52.700;7.306;2022-11-20T13:56:27;3.10;99.90
11188;DHT22;5650;52.700;7.306;2022-11-20T13:59:04;3.10;99.90
11188;DHT22;5650;52.700;7.306;2022-11-20T14:01:38;3.10;99.90
11188;DHT22;5650;52.700;7.306;2022-11-20T14:04:17;3.00;99.90
11188;DHT22;5650;52.700;7.306;2022-11-20T14:06:46;2.90;99.90
11188;DHT22;5650;52.700;7.306;2022-11-20T14:09:33;2.90;99.90
11188;DHT22;5650;52.700;7.306;2022-11-20T14:12:19;2.80;99.90
11188;DHT22;5650;52.700;7.306;2022-11-20T14:14:49;2.80;99.90
11188;DHT22;5650;52.700;7.306;2022-11-20T14:17:21;2.80;99.90
11188;DHT22;5650;52.700;7.306;2022-11-20T14:19:50;2.80;99.90
11188;DHT22;5650;52.700;7.306;2022-11-20T14:22:20;2.80;99.90
11188;DHT22;5650;52.700;7.306;2022-11-20T14:24:48;2.80;99.90
11188;DHT22;5650;52.700;7.306;2022-11-20T14:27:24;2.70;99.90
11188;DHT22;5650;52.700;7.306;2022-11-20T14:29:52;2.70;99.90
11188;DHT22;5650;52.700;7.306;2022-11-20T14:32:23;2.70;99.90
11188;DHT22;5650;52.700;7.306;2022-11-20T14:34:53;2.70;99.90
11188;DHT22;5650;52.700;7.306;2022-11-20T14:37:23;2.60;99.90
11188;DHT22;5650;52.700;7.306;2022-11-20T14:39:55;2.60;99.90
11188;DHT22;5650;52.700;7.306;2022-11-20T14:42:25;2.60;99.90
11188;DHT22;5650;52.700;7.306;2022-11-20T14:44:55;2.50;99.90
11188;DHT22;5650;52.700;7.306;2022-11-20T14:47:26;2.50;99.90
11188;DHT22;5650;52.700;7.306;2022-11-20T14:49:56;2.40;99.90
11188;DHT22;5650;52.700;7.306;2022-11-20T14:52:31;2.40;99.90
11188;DHT22;5650;52.700;7.306;2022-11-20T14:54:59;2.30;99.90
11188;DHT22;5650;52.700;7.306;2022-11-20T14:57:27;2.30;99.90
11188;DHT22;5650;52.700;7.306;2022-11-20T15:00:06;2.30;99.90
11188;DHT22;5650;52.700;7.306;2022-11-20T15:02:44;2.30;99.90
11188;DHT22;5650;52.700;7.306;2022-11-20T15:05:13;2.20;99.90
11188;DHT22;5650;52.700;7.306;2022-11-20T15:07:44;2.20;99.90
11188;DHT22;5650;52.700;7.306;2022-11-20T15:10:19;2.20;99.90
11188;DHT22;5650;52.700;7.306;2022-11-20T15:12:48;2.20;99.90
11188;DHT22;5650;52.700;7.306;2022-11-20T15:15:19;2.20;99.90
11188;DHT22;5650;52.700;7.306;2022-11-20T15:17:52;2.20;99.90
11188;DHT22;5650;52.700;7.306;2022-11-20T15:20:28;2.20;99.90
11188;DHT22;5650;52.700;7.306;2022-11-20T15:22:59;2.20;99.90
11188;DHT22;5650;52.700;7.306;2022-11-20T15:25:27;2.10;99.90
11188;DHT22;5650;52.700;7.306;2022-11-20T15:27:57;2.10;99.90
11188;DHT22;5650;52.700;7.306;2022-11-20T15:30:34;2.10;99.90
11188;DHT22;5650;52.700;7.306;2022-11-20T15:33:02;2.00;99.90
11188;DHT22;5650;52.700;7.306;2022-11-20T15:35:29;1.90;99.90
11188;DHT22;5650;52.700;7.306;2022-11-20T15:37:57;1.90;99.90
11188;DHT22;5650;52.700;7.306;2022-11-20T15:40:24;1.90;99.90
11188;DHT22;5650;52.700;7.306;2022-11-20T15:42:54;1.90;99.90
11188;DHT22;5650;52.700;7.306;2022-11-20T15:45:33;1.90;99.90
11188;DHT22;5650;52.700;7.306;2022-11-20T15:48:09;1.90;99.90
11188;DHT22;5650;52.700;7.306;2022-11-20T15:50:42;1.80;99.90
11188;DHT22;5650;52.700;7.306;2022-11-20T15:53:11;1.80;99.90
11188;DHT22;5650;52.700;7.306;2022-11-20T15:55:47;1.80;99.90
11188;DHT22;5650;52.700;7.306;2022-11-20T15:58:14;1.80;99.90
11188;DHT22;5650;52.700;7.306;2022-11-20T16:00:42;1.80;99.90
11188;DHT22;5650;52.700;7.306;2022-11-20T16:03:12;1.80;99.90
11188;DHT22;5650;52.700;7.306;2022-11-20T16:05:46;1.80;99.90
11188;DHT22;5650;52.700;7.306;2022-11-20T16:08:13;1.80;99.90
11188;DHT22;5650;52.700;7.306;2022-11-20T16:10:46;1.80;99.90
11188;DHT22;5650;52.700;7.306;2022-11-20T16:13:14;1.80;99.90
11188;DHT22;5650;52.700;7.306;2022-11-20T16:16:07;1.80;99.90
11188;DHT22;5650;52.700;7.306;2022-11-20T16:18:37;1.80;99.90
11188;DHT22;5650;52.700;7.306;2022-11-20T16:21:10;1.80;99.90
11188;DHT22;5650;52.700;7.306;2022-11-20T16:23:37;1.80;99.90
11188;DHT22;5650;52.700;7.306;2022-11-20T16:26:12;1.80;99.90
11188;DHT22;5650;52.700;7.306;2022-11-20T16:28:40;1.90;99.90
11188;DHT22;5650;52.700;7.306;2022-11-20T16:31:09;1.90;99.90
11188;DHT22;5650;52.700;7.306;2022-11-20T16:33:38;1.90;99.90
11188;DHT22;5650;52.700;7.306;2022-11-20T16:36:09;1.90;99.90
11188;DHT22;5650;52.700;7.306;2022-11-20T16:38:37;1.90;99.90
11188;DHT22;5650;52.700;7.306;2022-11-20T16:41:05;1.90;99.90